createdAt,value
2024-03-16T00:01:26.797Z,100383.26
2024-03-16T00:03:57.195Z,100385.82
2024-03-16T00:06:30.570Z,100380.42
2024-03-16T00:09:00.574Z,100377.15
2024-03-16T00:11:32.938Z,100375.31
2024-03-16T00:14:02.745Z,100369.81
2024-03-16T00:16:33.854Z,100369.60
2024-03-16T00:19:04.901Z,100363.20
2024-03-16T00:21:35.012Z,100368.33
2024-03-16T00:24:04.944Z,100366.70
2024-03-16T00:26:34.631Z,100358.16
2024-03-16T00:29:08.395Z,100357.20
2024-03-16T00:31:38.472Z,100358.92
2024-03-16T00:34:11.002Z,100353.35
2024-03-16T00:36:41.016Z,100350.59
2024-03-16T00:39:16.625Z,100352.65
2024-03-16T00:41:46.792Z,100350.55
2024-03-16T00:44:16.683Z,100345.62
2024-03-16T00:46:46.691Z,100349.18
2024-03-16T00:49:16.607Z,100348.91
2024-03-16T00:51:46.844Z,100346.70
2024-03-16T00:54:16.731Z,100348.24
2024-03-16T00:56:47.669Z,100344.00
2024-03-16T00:59:17.456Z,100347.09
2024-03-16T01:01:47.992Z,100341.44
2024-03-16T01:04:17.830Z,100342.39
2024-03-16T01:06:47.834Z,100337.09
2024-03-16T01:09:17.819Z,100336.52
2024-03-16T01:11:47.536Z,100332.30
2024-03-16T01:14:17.500Z,100337.52
2024-03-16T01:16:48.211Z,100333.44
2024-03-16T01:19:18.198Z,100330.38
2024-03-16T01:21:48.044Z,100325.08
2024-03-16T01:24:18.145Z,100323.20
2024-03-16T01:26:48.549Z,100314.88
2024-03-16T01:29:19.539Z,100309.11
2024-03-16T01:31:50.321Z,100308.29
2024-03-16T01:34:19.990Z,100306.95
2024-03-16T01:36:50.220Z,100307.73
2024-03-16T01:39:20.613Z,100307.61
2024-03-16T01:41:50.371Z,100308.20
2024-03-16T01:44:20.356Z,100308.27
2024-03-16T01:46:50.176Z,100300.54
2024-03-16T01:49:19.854Z,100304.31
2024-03-16T01:51:52.215Z,100296.77
2024-03-16T01:54:22.256Z,100294.89
2024-03-16T01:56:53.116Z,100301.15
2024-03-16T01:59:22.952Z,100298.99
2024-03-16T02:01:53.538Z,100301.31
2024-03-16T02:04:23.458Z,100302.20
2024-03-16T02:06:53.629Z,100299.48
2024-03-16T02:09:24.421Z,100297.87
2024-03-16T02:11:54.192Z,100295.10
2024-03-16T02:14:23.935Z,100298.61
2024-03-16T02:16:56.535Z,100293.45
2024-03-16T02:19:26.766Z,100299.11
2024-03-16T02:21:56.706Z,100299.84
2024-03-16T02:24:26.561Z,100296.91
2024-03-16T02:26:57.243Z,100293.75
2024-03-16T02:29:29.621Z,100297.18
2024-03-16T02:31:59.773Z,100293.18
2024-03-16T02:34:29.562Z,100294.22
2024-03-16T02:36:59.337Z,100295.56
2024-03-16T02:39:29.193Z,100292.87
2024-03-16T02:42:00.064Z,100293.89
2024-03-16T02:44:31.088Z,100289.63
2024-03-16T02:47:01.074Z,100291.73
2024-03-16T02:49:31.179Z,100290.82
2024-03-16T02:52:01.018Z,100291.47
2024-03-16T02:54:31.748Z,100288.17
2024-03-16T02:57:01.591Z,100288.86
2024-03-16T02:59:31.415Z,100287.11
2024-03-16T03:02:01.661Z,100282.36
2024-03-16T03:04:31.534Z,100279.94
2024-03-16T03:07:02.569Z,100278.71
2024-03-16T03:09:33.988Z,100278.64
2024-03-16T03:12:05.815Z,100278.98
2024-03-16T03:14:35.933Z,100283.89
2024-03-16T03:17:05.697Z,100284.34
2024-03-16T03:19:35.394Z,100282.02
2024-03-16T03:22:05.272Z,100282.30
2024-03-16T03:24:35.258Z,100283.84
2024-03-16T03:27:05.154Z,100283.09
2024-03-16T03:29:34.982Z,100279.23
2024-03-16T03:32:05.607Z,100276.95
2024-03-16T03:34:35.521Z,100277.52
2024-03-16T03:37:05.565Z,100277.08
2024-03-16T03:39:35.643Z,100275.13
2024-03-16T03:42:05.542Z,100275.83
2024-03-16T03:44:39.708Z,100273.02
2024-03-16T03:47:10.201Z,100272.41
2024-03-16T03:49:41.514Z,100274.64
2024-03-16T03:52:11.352Z,100276.52
2024-03-16T03:54:41.091Z,100277.16
2024-03-16T03:57:11.992Z,100271.96
2024-03-16T03:59:42.207Z,100274.02
2024-03-16T04:02:11.997Z,100276.21
2024-03-16T04:04:43.452Z,100274.52
2024-03-16T04:07:13.724Z,100270.45
2024-03-16T04:09:48.323Z,100268.58
2024-03-16T04:12:18.347Z,100276.06
2024-03-16T04:14:48.069Z,100278.14
2024-03-16T04:17:18.043Z,100280.84
2024-03-16T04:19:48.502Z,100279.77
2024-03-16T04:22:18.305Z,100281.23
2024-03-16T04:24:48.442Z,100280.35
2024-03-16T04:27:18.436Z,100276.39
2024-03-16T04:29:48.260Z,100278.72
2024-03-16T04:32:18.500Z,100274.56
2024-03-16T04:34:48.332Z,100275.20
2024-03-16T04:37:18.399Z,100273.53
2024-03-16T04:39:49.105Z,100268.90
2024-03-16T04:42:19.329Z,100272.02
2024-03-16T04:44:49.389Z,100266.67
2024-03-16T04:47:19.215Z,100265.52
2024-03-16T04:49:49.114Z,100263.67
2024-03-16T04:52:19.034Z,100264.10
2024-03-16T04:54:48.987Z,100265.23
2024-03-16T04:57:19.935Z,100268.64
2024-03-16T04:59:49.955Z,100267.21
2024-03-16T05:02:19.872Z,100265.98
2024-03-16T05:04:49.706Z,100269.66
2024-03-16T05:07:19.761Z,100274.89
2024-03-16T05:09:49.667Z,100274.33
2024-03-16T05:12:20.124Z,100276.06
2024-03-16T05:14:53.182Z,100275.17
2024-03-16T05:17:23.229Z,100279.14
2024-03-16T05:19:53.552Z,100275.91
2024-03-16T05:22:23.271Z,100280.04
2024-03-16T05:24:53.142Z,100280.45
2024-03-16T05:27:22.840Z,100282.23
2024-03-16T05:29:55.410Z,100283.15
2024-03-16T05:32:25.840Z,100283.86
2024-03-16T05:34:56.627Z,100289.52
2024-03-16T05:37:29.404Z,100290.63
2024-03-16T05:39:59.999Z,100286.87
2024-03-16T05:42:30.331Z,100285.25
2024-03-16T05:45:01.082Z,100283.29
2024-03-16T05:47:31.346Z,100287.20
2024-03-16T05:50:01.854Z,100288.80
2024-03-16T05:52:31.756Z,100288.93
2024-03-16T05:55:01.710Z,100282.38
2024-03-16T05:57:31.739Z,100280.79
2024-03-16T06:00:01.808Z,100283.27
2024-03-16T06:02:32.278Z,100284.15
2024-03-16T06:05:01.984Z,100280.80
2024-03-16T06:07:31.697Z,100284.11
2024-03-16T06:10:01.763Z,100281.94
2024-03-16T06:12:32.398Z,100282.34
2024-03-16T06:15:02.376Z,100288.64
2024-03-16T06:17:32.472Z,100290.23
2024-03-16T06:20:04.520Z,100288.65
2024-03-16T06:22:34.327Z,100292.82
2024-03-16T06:25:04.342Z,100295.30
2024-03-16T06:27:35.528Z,100290.43
2024-03-16T06:30:08.363Z,100284.60
2024-03-16T06:32:39.913Z,100287.00
2024-03-16T06:35:09.861Z,100292.27
2024-03-16T06:37:39.867Z,100299.46
2024-03-16T06:40:10.872Z,100299.09
2024-03-16T06:42:40.645Z,100297.58
2024-03-16T06:45:10.712Z,100304.29
2024-03-16T06:47:40.881Z,100309.02
2024-03-16T06:50:12.254Z,100308.05
2024-03-16T06:52:44.525Z,100309.58
2024-03-16T06:55:14.699Z,100312.65
2024-03-16T06:57:44.475Z,100312.17
2024-03-16T07:00:15.375Z,100312.05
2024-03-16T07:02:45.287Z,100319.45
2024-03-16T07:05:15.249Z,100325.77
2024-03-16T07:07:45.075Z,100328.27
2024-03-16T07:10:16.334Z,100332.15
2024-03-16T07:12:46.457Z,100334.59
2024-03-16T07:15:17.005Z,100334.30
2024-03-16T07:17:47.379Z,100332.72
2024-03-16T07:20:17.457Z,100338.10
2024-03-16T07:22:47.245Z,100337.25
2024-03-16T07:25:17.159Z,100340.89
2024-03-16T07:27:46.975Z,100341.09
2024-03-16T07:30:19.091Z,100343.39
2024-03-16T07:32:51.056Z,100341.98
2024-03-16T07:35:20.900Z,100342.98
2024-03-16T07:37:50.722Z,100344.89
2024-03-16T07:40:23.181Z,100347.55
2024-03-16T07:42:53.111Z,100347.64
2024-03-16T07:45:22.861Z,100349.22
2024-03-16T07:47:52.787Z,100352.84
2024-03-16T07:50:22.538Z,100354.51
2024-03-16T07:52:52.688Z,100363.12
2024-03-16T07:55:22.343Z,100356.48
2024-03-16T07:57:52.089Z,100356.16
2024-03-16T08:00:21.858Z,100359.61
2024-03-16T08:02:51.844Z,100353.11
2024-03-16T08:05:21.584Z,100356.89
2024-03-16T08:07:51.362Z,100356.17
2024-03-16T08:10:21.617Z,100351.16
2024-03-16T08:12:51.636Z,100350.05
2024-03-16T08:15:22.568Z,100347.67
2024-03-16T08:17:55.157Z,100352.38
2024-03-16T08:20:24.901Z,100348.59
2024-03-16T08:22:55.796Z,100351.83
2024-03-16T08:25:25.764Z,100350.84
2024-03-16T08:27:55.665Z,100350.47
2024-03-16T08:30:26.755Z,100352.29
2024-03-16T08:32:57.618Z,100350.83
2024-03-16T08:35:27.374Z,100351.96
2024-03-16T08:37:57.032Z,100346.65
2024-03-16T08:40:26.885Z,100345.02
2024-03-16T08:42:57.347Z,100342.73
2024-03-16T08:45:27.296Z,100343.76
2024-03-16T08:47:57.169Z,100337.14
2024-03-16T08:50:26.954Z,100340.82
2024-03-16T08:52:56.834Z,100339.21
2024-03-16T08:55:27.111Z,100340.80
2024-03-16T08:57:57.799Z,100336.34
2024-03-16T09:00:27.867Z,100332.59
2024-03-16T09:02:57.705Z,100333.20
2024-03-16T09:05:27.462Z,100334.25
2024-03-16T09:07:57.390Z,100334.57
2024-03-16T09:10:27.320Z,100336.05
2024-03-16T09:12:57.187Z,100338.43
2024-03-16T09:15:27.303Z,100339.73
2024-03-16T09:17:57.143Z,100334.91
2024-03-16T09:20:28.334Z,100333.95
2024-03-16T09:22:58.982Z,100332.39
2024-03-16T09:25:30.084Z,100331.78
2024-03-16T09:28:00.189Z,100334.95
2024-03-16T09:30:30.652Z,100336.41
2024-03-16T09:33:00.727Z,100334.26
2024-03-16T09:35:30.644Z,100329.91
2024-03-16T09:38:00.777Z,100334.86
2024-03-16T09:40:30.633Z,100336.80
2024-03-16T09:43:00.505Z,100335.03
2024-03-16T09:45:31.641Z,100332.05
2024-03-16T09:48:01.632Z,100335.37
2024-03-16T09:50:32.817Z,100338.98
2024-03-16T09:53:02.614Z,100339.33
2024-03-16T09:55:33.027Z,100337.36
2024-03-16T09:58:03.432Z,100343.95
2024-03-16T10:00:33.480Z,100341.85
2024-03-16T10:03:04.465Z,100341.64
2024-03-16T10:05:34.479Z,100342.45
2024-03-16T10:08:05.448Z,100339.86
2024-03-16T10:10:36.670Z,100337.75
2024-03-16T10:13:09.094Z,100337.02
2024-03-16T10:15:45.439Z,100339.35
2024-03-16T10:18:16.203Z,100333.27
2024-03-16T10:20:46.344Z,100331.14
2024-03-16T10:23:17.962Z,100327.41
2024-03-16T10:25:47.832Z,100324.77
2024-03-16T10:28:17.841Z,100319.55
2024-03-16T10:30:47.608Z,100310.72
2024-03-16T10:33:19.428Z,100315.08
2024-03-16T10:35:50.500Z,100316.60
2024-03-16T10:38:20.372Z,100313.65
2024-03-16T10:40:50.697Z,100313.21
2024-03-16T10:43:20.614Z,100318.00
2024-03-16T10:45:51.327Z,100319.45
2024-03-16T10:48:21.203Z,100318.55
2024-03-16T10:50:53.925Z,100317.98
2024-03-16T10:53:26.604Z,100322.52
2024-03-16T10:55:57.442Z,100320.63
2024-03-16T10:58:27.550Z,100323.90
2024-03-16T11:00:58.677Z,100317.75
2024-03-16T11:03:29.197Z,100318.21
2024-03-16T11:06:03.383Z,100313.07
2024-03-16T11:08:43.527Z,100312.83
2024-03-16T11:11:14.090Z,100306.69
2024-03-16T11:13:45.371Z,100313.46
2024-03-16T11:16:28.290Z,100309.59
2024-03-16T11:18:59.838Z,100303.73
2024-03-16T11:21:31.494Z,100304.41
2024-03-16T11:24:04.959Z,100306.81
2024-03-16T11:26:44.861Z,100303.96
2024-03-16T11:29:16.495Z,100302.64
2024-03-16T11:31:50.050Z,100303.48
2024-03-16T11:34:21.267Z,100301.52
2024-03-16T11:36:51.701Z,100303.19
2024-03-16T11:39:26.757Z,100303.73
2024-03-16T11:41:57.545Z,100302.80
2024-03-16T11:44:27.548Z,100301.21
2024-03-16T11:46:59.802Z,100297.77
2024-03-16T11:49:30.001Z,100300.19
2024-03-16T11:52:00.019Z,100298.73
2024-03-16T11:54:30.067Z,100298.39
2024-03-16T11:57:02.198Z,100301.95
2024-03-16T11:59:39.339Z,100304.43
2024-03-16T12:02:09.169Z,100303.26
2024-03-16T12:04:39.556Z,100301.98
2024-03-16T12:07:11.122Z,100299.00
2024-03-16T12:09:43.143Z,100297.15
2024-03-16T12:12:12.916Z,100295.80
2024-03-16T12:14:43.814Z,100292.37
2024-03-16T12:17:16.722Z,100289.25
2024-03-16T12:19:46.456Z,100283.16
2024-03-16T12:22:16.911Z,100280.00
2024-03-16T12:24:47.451Z,100277.39
2024-03-16T12:27:17.387Z,100283.50
2024-03-16T12:29:47.896Z,100278.77
2024-03-16T12:32:17.608Z,100278.72
2024-03-16T12:34:47.284Z,100277.13
2024-03-16T12:37:17.129Z,100274.85
2024-03-16T12:39:47.132Z,100272.82
2024-03-16T12:42:17.236Z,100272.56
2024-03-16T12:44:48.078Z,100270.64
2024-03-16T12:47:18.191Z,100267.19
2024-03-16T12:49:47.895Z,100263.61
2024-03-16T12:52:17.666Z,100259.64
2024-03-16T12:54:47.514Z,100253.21
2024-03-16T12:57:17.594Z,100247.70
2024-03-16T12:59:47.398Z,100242.27
2024-03-16T13:02:17.018Z,100240.12
2024-03-16T13:04:47.811Z,100240.70
2024-03-16T13:07:17.505Z,100240.39
2024-03-16T13:09:47.811Z,100242.77
2024-03-16T13:12:17.610Z,100240.44
2024-03-16T13:14:49.020Z,100240.73
2024-03-16T13:17:19.140Z,100237.56
2024-03-16T13:19:49.052Z,100233.83
2024-03-16T13:22:18.783Z,100237.55
2024-03-16T13:24:48.675Z,100231.02
2024-03-16T13:27:18.600Z,100229.69
2024-03-16T13:29:48.557Z,100225.04
2024-03-16T13:32:18.283Z,100221.23
2024-03-16T13:34:49.101Z,100214.38
2024-03-16T13:37:18.928Z,100213.21
2024-03-16T13:39:48.601Z,100214.49
2024-03-16T13:42:18.562Z,100218.67
2024-03-16T13:44:49.859Z,100222.19
2024-03-16T13:47:22.412Z,100224.42
2024-03-16T13:49:52.439Z,100227.70
2024-03-16T13:52:22.367Z,100227.65
2024-03-16T13:54:52.078Z,100241.92
2024-03-16T13:57:21.974Z,100269.77
2024-03-16T13:59:51.774Z,100294.79
2024-03-16T14:02:23.154Z,100290.34
2024-03-16T14:04:53.065Z,100285.13
2024-03-16T14:07:23.207Z,100277.83
2024-03-16T14:09:52.850Z,100257.88
2024-03-16T14:12:22.923Z,100254.33
2024-03-16T14:14:56.961Z,100255.05
2024-03-16T14:17:27.100Z,100250.10
2024-03-16T14:19:57.592Z,100246.73
2024-03-16T14:22:27.724Z,100244.66
2024-03-16T14:24:57.501Z,100240.88
2024-03-16T14:27:27.456Z,100238.80
2024-03-16T14:29:57.846Z,100230.98
2024-03-16T14:32:28.243Z,100225.50
2024-03-16T14:34:58.172Z,100220.41
2024-03-16T14:37:28.127Z,100225.65
2024-03-16T14:39:57.818Z,100218.21
2024-03-16T14:42:27.928Z,100220.16
2024-03-16T14:44:57.688Z,100216.39
2024-03-16T14:47:30.201Z,100208.02
2024-03-16T14:50:00.247Z,100207.80
2024-03-16T14:52:31.222Z,100204.67
2024-03-16T14:55:02.318Z,100203.67
2024-03-16T14:57:33.480Z,100203.01
2024-03-16T15:00:04.293Z,100205.85
2024-03-16T15:02:34.903Z,100204.68
2024-03-16T15:05:06.901Z,100202.56
2024-03-16T15:07:38.347Z,100199.82
2024-03-16T15:10:10.099Z,100201.45
2024-03-16T15:12:40.018Z,100200.90
2024-03-16T15:15:11.336Z,100197.16
2024-03-16T15:17:41.155Z,100195.08
2024-03-16T15:20:11.351Z,100198.94
2024-03-16T15:22:41.086Z,100202.40
2024-03-16T15:25:18.633Z,100200.46
2024-03-16T15:27:57.608Z,100200.86
2024-03-16T15:30:32.188Z,100201.94
2024-03-16T15:33:04.633Z,100203.48
2024-03-16T15:35:34.496Z,100202.18
2024-03-16T15:38:04.591Z,100202.45
2024-03-16T15:40:34.787Z,100203.40
2024-03-16T15:43:04.792Z,100204.71
2024-03-16T15:45:34.928Z,100204.70
2024-03-16T15:48:09.495Z,100205.74
2024-03-16T15:50:39.846Z,100211.88
2024-03-16T15:53:09.512Z,100215.65
2024-03-16T15:55:39.333Z,100212.04
2024-03-16T15:58:09.014Z,100217.19
2024-03-16T16:00:38.746Z,100217.91
2024-03-16T16:03:08.507Z,100225.66
2024-03-16T16:05:39.026Z,100224.25
2024-03-16T16:08:10.582Z,100229.83
2024-03-16T16:10:41.913Z,100229.70
2024-03-16T16:13:18.373Z,100238.52
2024-03-16T16:15:48.336Z,100240.19
2024-03-16T16:18:18.109Z,100246.48
2024-03-16T16:20:51.030Z,100248.28
2024-03-16T16:23:21.537Z,100252.66
2024-03-16T16:25:51.568Z,100254.33
2024-03-16T16:28:21.708Z,100256.65
2024-03-16T16:30:53.124Z,100254.06
2024-03-16T16:33:23.933Z,100258.19
2024-03-16T16:35:54.821Z,100261.73
2024-03-16T16:38:27.325Z,100260.45
2024-03-16T16:40:57.991Z,100261.72
2024-03-16T16:43:30.242Z,100259.85
2024-03-16T16:46:05.515Z,100263.39
2024-03-16T16:48:39.500Z,100263.75
2024-03-16T16:51:09.949Z,100264.14
2024-03-16T16:53:39.769Z,100269.34
2024-03-16T16:56:11.659Z,100270.95
2024-03-16T16:58:41.932Z,100266.94
2024-03-16T17:01:11.969Z,100270.19
2024-03-16T17:03:42.150Z,100268.13
2024-03-16T17:06:13.827Z,100270.97
2024-03-16T17:08:43.626Z,100272.84
2024-03-16T17:11:19.509Z,100274.97
2024-03-16T17:13:53.201Z,100276.92
2024-03-16T17:16:28.715Z,100277.81
2024-03-16T17:19:02.469Z,100277.16
2024-03-16T17:21:35.264Z,100275.45
2024-03-16T17:24:09.481Z,100272.96
2024-03-16T17:26:41.030Z,100272.06
2024-03-16T17:29:12.321Z,100275.23
2024-03-16T17:31:42.492Z,100271.17
2024-03-16T17:34:12.290Z,100274.36
2024-03-16T17:36:42.595Z,100277.13
2024-03-16T17:39:17.486Z,100279.90
2024-03-16T17:41:50.554Z,100280.27
2024-03-16T17:44:20.542Z,100282.72
2024-03-16T17:46:50.486Z,100283.10
2024-03-16T17:49:21.074Z,100281.27
2024-03-16T17:51:53.694Z,100284.67
2024-03-16T17:54:25.564Z,100285.41
2024-03-16T17:56:57.758Z,100282.45
2024-03-16T17:59:27.844Z,100280.99
2024-03-16T18:01:57.558Z,100282.48
2024-03-16T18:04:31.284Z,100286.59
2024-03-16T18:07:03.519Z,100281.30
2024-03-16T18:09:33.964Z,100285.23
2024-03-16T18:12:08.371Z,100286.27
2024-03-16T18:14:41.836Z,100286.33
2024-03-16T18:17:12.592Z,100288.59
2024-03-16T18:19:42.531Z,100291.06
2024-03-16T18:22:15.914Z,100292.95
2024-03-16T18:24:50.454Z,100299.35
2024-03-16T18:27:20.344Z,100298.10
2024-03-16T18:29:50.143Z,100296.36
2024-03-16T18:32:23.755Z,100294.26
2024-03-16T18:34:53.523Z,100297.31
2024-03-16T18:37:28.227Z,100296.27
2024-03-16T18:39:58.070Z,100295.36
2024-03-16T18:42:27.983Z,100298.11
2024-03-16T18:44:58.012Z,100298.98
2024-03-16T18:47:27.695Z,100300.50
2024-03-16T18:49:57.642Z,100296.37
2024-03-16T18:52:28.492Z,100299.02
2024-03-16T18:54:58.660Z,100299.59
2024-03-16T18:57:30.731Z,100301.05
2024-03-16T19:00:00.990Z,100298.93
2024-03-16T19:02:34.275Z,100294.92
2024-03-16T19:05:07.298Z,100294.55
2024-03-16T19:07:38.087Z,100292.38
2024-03-16T19:10:13.623Z,100292.84
2024-03-16T19:12:45.397Z,100308.23
2024-03-16T19:15:17.728Z,100343.32
2024-03-16T19:17:53.226Z,100353.52
2024-03-16T19:20:26.222Z,100356.60
2024-03-16T19:22:58.457Z,100350.94
2024-03-16T19:25:28.231Z,100343.53
2024-03-16T19:27:58.066Z,100332.04
2024-03-16T19:30:27.837Z,100328.19
2024-03-16T19:32:57.573Z,100323.33
2024-03-16T19:35:27.427Z,100313.04
2024-03-16T19:37:57.252Z,100318.75
2024-03-16T19:40:27.066Z,100308.04
2024-03-16T19:42:57.082Z,100301.65
2024-03-16T19:45:27.619Z,100311.02
2024-03-16T19:47:57.539Z,100312.78
2024-03-16T19:50:27.237Z,100314.00
2024-03-16T19:52:58.307Z,100314.84
2024-03-16T19:55:28.596Z,100320.73
2024-03-16T19:57:58.360Z,100331.98
2024-03-16T20:00:28.249Z,100339.05
2024-03-16T20:02:57.902Z,100344.21
2024-03-16T20:05:29.425Z,100350.21
2024-03-16T20:07:59.335Z,100353.73
2024-03-16T20:10:29.268Z,100354.64
2024-03-16T20:12:59.587Z,100348.83
2024-03-16T20:15:29.416Z,100349.56
2024-03-16T20:17:59.167Z,100350.34
2024-03-16T20:20:29.195Z,100354.23
2024-03-16T20:22:58.909Z,100350.71
2024-03-16T20:25:28.925Z,100355.48
2024-03-16T20:27:59.566Z,100350.46
2024-03-16T20:30:29.586Z,100353.15
2024-03-16T20:32:59.700Z,100346.59
2024-03-16T20:35:29.450Z,100350.27
2024-03-16T20:38:00.700Z,100348.95
2024-03-16T20:40:30.786Z,100351.77
2024-03-16T20:43:00.521Z,100349.44
2024-03-16T20:45:30.248Z,100351.34
2024-03-16T20:48:00.230Z,100351.99
2024-03-16T20:50:30.453Z,100352.48
2024-03-16T20:53:00.374Z,100355.90
2024-03-16T20:55:30.043Z,100357.17
2024-03-16T20:57:59.852Z,100358.01
2024-03-16T21:00:31.620Z,100358.98
2024-03-16T21:03:01.399Z,100355.26
2024-03-16T21:05:31.340Z,100360.17
2024-03-16T21:08:02.121Z,100361.54
2024-03-16T21:10:32.136Z,100366.91
2024-03-16T21:13:01.873Z,100368.46
2024-03-16T21:15:31.631Z,100362.88
2024-03-16T21:18:02.467Z,100367.52
2024-03-16T21:20:32.225Z,100368.52
2024-03-16T21:23:01.958Z,100368.41
2024-03-16T21:25:31.750Z,100373.59
2024-03-16T21:28:01.827Z,100374.80
2024-03-16T21:30:31.907Z,100382.43
2024-03-16T21:33:01.801Z,100383.52
2024-03-16T21:35:33.509Z,100388.77
2024-03-16T21:38:05.457Z,100386.90
2024-03-16T21:40:36.835Z,100389.80
2024-03-16T21:43:08.258Z,100391.49
2024-03-16T21:45:40.504Z,100396.97
2024-03-16T21:48:10.473Z,100398.20
2024-03-16T21:50:42.434Z,100405.92
2024-03-16T21:53:12.243Z,100412.66
2024-03-16T21:55:41.969Z,100423.40
2024-03-16T21:58:12.064Z,100423.63
2024-03-16T22:00:42.215Z,100431.10
2024-03-16T22:03:11.963Z,100428.80
2024-03-16T22:05:43.105Z,100434.98
2024-03-16T22:08:13.094Z,100437.63
2024-03-16T22:10:42.936Z,100441.64
2024-03-16T22:13:12.627Z,100447.43
2024-03-16T22:15:42.326Z,100456.39
2024-03-16T22:18:12.133Z,100455.08
2024-03-16T22:20:42.363Z,100454.27
2024-03-16T22:23:12.094Z,100455.11
2024-03-16T22:25:41.857Z,100459.27
2024-03-16T22:28:12.193Z,100460.61
2024-03-16T22:30:41.993Z,100464.67
2024-03-16T22:33:12.994Z,100472.48
2024-03-16T22:35:42.803Z,100474.24
2024-03-16T22:38:14.942Z,100480.44
2024-03-16T22:40:45.665Z,100491.36
2024-03-16T22:43:17.306Z,100498.16
2024-03-16T22:45:48.255Z,100507.30
2024-03-16T22:48:17.933Z,100515.14
2024-03-16T22:50:47.740Z,100523.47
2024-03-16T22:53:17.635Z,100532.55
2024-03-16T22:55:48.393Z,100538.63
2024-03-16T22:58:18.564Z,100547.41
2024-03-16T23:00:53.397Z,100557.95
2024-03-16T23:03:23.576Z,100564.11
2024-03-16T23:05:53.879Z,100573.01
2024-03-16T23:08:23.694Z,100580.98
2024-03-16T23:10:53.512Z,100587.30
2024-03-16T23:13:24.398Z,100589.80
2024-03-16T23:15:57.049Z,100589.40
2024-03-16T23:18:27.062Z,100596.80
2024-03-16T23:20:57.935Z,100600.23
2024-03-16T23:23:28.256Z,100611.63
2024-03-16T23:26:00.625Z,100616.29
2024-03-16T23:28:32.212Z,100624.98
2024-03-16T23:31:02.184Z,100622.72
2024-03-16T23:33:31.969Z,100621.37
2024-03-16T23:36:02.580Z,100629.84
2024-03-16T23:38:32.620Z,100632.39
2024-03-16T23:41:04.563Z,100633.50
2024-03-16T23:43:34.435Z,100642.63
2024-03-16T23:46:04.260Z,100646.45
2024-03-16T23:48:34.064Z,100646.30
2024-03-16T23:51:03.957Z,100652.27
2024-03-16T23:53:34.238Z,100655.80
2024-03-16T23:56:06.212Z,100653.61
2024-03-16T23:58:35.962Z,100655.23
